Bay Area Logo

Salinas, CA Single Family Real Estate Listings

465 Total Real Estate Listings * Click on table heading to sort
Date Posted Property Type Style Address Price Living Area Lot Size Price/Sq Ft.
2018-06-17 Single Family 18431 Keepsake Court Salinas, CA 93908 $749,000 2,380 sq. ft. 8,276 sq. ft. $315
2018-06-17 Single Family Contemporary 19044 Fieldstone Court Salinas, CA 93908 $925,000 2,897 sq. ft. 9,583 sq. ft. $319
2018-06-17 Single Family Contemporary 212 San Benancio Road Salinas, CA 93908 $829,000 2,246 sq. ft. 108,900 sq. ft. $369
2018-06-16 Single Family 1509 Sepulveda Drive Salinas, CA 93906 $477,900 1,775 sq. ft. 3,485 sq. ft. $269
2018-06-16 Single Family Traditional 416 Pike Way Salinas, CA 93906 $425,000 1,240 sq. ft. 6,534 sq. ft. $343
2018-06-15 Single Family 1442 Linwood Drive Salinas, CA 93906 $429,000 1,312 sq. ft. 6,970 sq. ft. $327
2018-06-15 Single Family Cabin 45 Crazy Horse Canyon Road Salinas, CA 93907 $699,000 1,187 sq. ft. 914,760 sq. ft. $589
2018-06-15 Single Family 774 Circle Drive Salinas, CA 93905 $399,999 1,341 sq. ft. 6,098 sq. ft. $298
2018-06-15 Single Family 1423 Wolf Court Salinas, CA 93905 $437,500 1,285 sq. ft. 6,098 sq. ft. $340
2018-06-14 Single Family 52 Christensen Avenue Salinas, CA 93906 $345,000 1,206 sq. ft. 3,920 sq. ft. $286
2018-06-14 Single Family 330 Coleridge Drive Salinas, CA 93901 $539,000 1,659 sq. ft. 10,019 sq. ft. $325
2018-06-13 Single Family 276 Pingree Way Salinas, CA 93906 $399,000 1,120 sq. ft. 9,148 sq. ft. $356
2018-06-13 Single Family 1232 Nogal Drive Salinas, CA 93905 $399,000 960 sq. ft. 6,534 sq. ft. $416
2018-06-13 Single Family 7512 Tustin Road Salinas, CA 93907 $599,900 1,575 sq. ft. 43,560 sq. ft. $381
2018-06-13 Single Family 17588 River Run Road Salinas, CA 93908 $789,500 2,417 sq. ft. 6,534 sq. ft. $327
2018-06-12 Single Family 25983 High Terrace Lane Salinas, CA 93908 $1,498,000 3,960 sq. ft. 154,202 sq. ft. $378
2018-06-12 Single Family 121 Prado Street Salinas, CA 93906 $205,000 429 sq. ft. 6,534 sq. ft. $478
2018-06-12 Single Family 22963 Cordoba Place Salinas, CA 93908 $785,000 1,560 sq. ft. 10,890 sq. ft. $503
2018-06-12 Single Family 163 Manzanita Way Salinas, CA 93908 $785,000 2,117 sq. ft. 12,197 sq. ft. $371
2018-06-09 Single Family 391 Bush Street Salinas, CA 93907 $554,000 1,861 sq. ft. 6,534 sq. ft. $298
2018-06-08 Single Family 152 Greenbriar Way Salinas, CA 93907 $619,000 2,376 sq. ft. 6,098 sq. ft. $261
2018-06-08 Single Family 726 Ashbury Way Salinas, CA 93907 $457,000 1,197 sq. ft. 8,712 sq. ft. $382
2018-06-08 Single Family 8 Tahoe Circle Salinas, CA 93906 $449,000 1,315 sq. ft. 6,098 sq. ft. $341
2018-06-08 Single Family 7247 Grace Lane Salinas, CA 93907 $625,000 1,741 sq. ft. 88,862 sq. ft. $359
2018-06-08 Single Family 25339 Camino De Chamisal Salinas, CA 93908 $1,100,900 2,962 sq. ft. 170,755 sq. ft. $372
2018-06-07 Single Family 17711 Riverbend Road Salinas, CA 93908 $694,900 2,417 sq. ft. 4,792 sq. ft. $288
2018-06-07 Single Family 942 San Simeon Drive Salinas, CA 93901 $517,900 1,348 sq. ft. 7,405 sq. ft. $384
2018-06-07 Single Family 114 San Miguel Avenue Salinas, CA 93901 $525,000 1,399 sq. ft. 7,841 sq. ft. $375
2018-06-07 Single Family 22 Saint Albans Circle Salinas, CA 93905 $385,000 1,242 sq. ft. 6,534 sq. ft. $310
2018-06-06 Single Family 673 Alvarado Court Salinas, CA 93907 $340,000 985 sq. ft. 4,792 sq. ft. $345
2018-06-05 Single Family Mediterranean 201 Acacia Street Salinas, CA 93901 $999,000 3,626 sq. ft. 12,197 sq. ft. $276
2018-06-05 Single Family 1256 Via Paraiso Salinas, CA 93901 $719,000 2,647 sq. ft. 5,663 sq. ft. $272
2018-06-05 Single Family Mediterranean 153 Corral De Tierra Road Salinas, CA 93908 $2,995,000 6,466 sq. ft. 67,954 sq. ft. $463
2018-06-05 Single Family 1544 Imperial Way Salinas, CA 93906 $424,000 1,253 sq. ft. 5,663 sq. ft. $338
2018-06-05 Single Family 214 Alvin Drive Salinas, CA 93906 $389,000 1,077 sq. ft. 3,485 sq. ft. $361
2018-06-04 Single Family 9724 Arrowleaf Trail Salinas, CA 93907 $559,000 1,703 sq. ft. 14,810 sq. ft. $328
2018-06-04 Single Family Ranch 46 Harper Canyon Road Salinas, CA 93908 $899,000 1,948 sq. ft. 63,162 sq. ft. $462
2018-06-04 Single Family 1658 Cupertino Salinas, CA 93906 $450,000 1,297 sq. ft. 6,098 sq. ft. $347
2018-06-04 Single Family 6238 Echo Valley Court Salinas, CA 93907 $560,000 1,500 sq. ft. 87,120 sq. ft. $373
2018-06-03 Single Family 1556 Oyster Bay Court Salinas, CA 93906 $525,000 1,823 sq. ft. 4,356 sq. ft. $288
2018-06-02 Single Family 841 Meadow Drive Salinas, CA 93905 $425,000 1,205 sq. ft. 6,970 sq. ft. $353
2018-06-01 Single Family 13 Ebano Place Salinas, CA 93905 $444,900 1,461 sq. ft. 7,405 sq. ft. $305
2018-06-01 Single Family 17673 River Run Road Salinas, CA 93908 $659,999 2,029 sq. ft. 6,098 sq. ft. $325
2018-06-01 Single Family 694 San Juan Grade Road Salinas, CA 93906 $390,000 939 sq. ft. 13,068 sq. ft. $415
2018-06-01 Single Family 12210 Ticino Circle Salinas, CA 93906 $599,000 1,845 sq. ft. 15,682 sq. ft. $325
2018-06-01 Single Family 1334 Bolero Avenue Salinas, CA 93906 $429,900 1,495 sq. ft. 5,663 sq. ft. $288
2018-06-01 Single Family 1119 Fox Glen Way Salinas, CA 93905 $470,000 1,427 sq. ft. 4,792 sq. ft. $329
2018-05-31 Single Family 443 Rico Street Salinas, CA 93907 $449,000 1,533 sq. ft. 4,792 sq. ft. $293
2018-05-31 Single Family 350 Elwood Street Salinas, CA 93906 $435,000 1,329 sq. ft. 7,841 sq. ft. $327
2018-05-31 Single Family Traditional 18421 Moro Road Salinas, CA 93907 $658,000 2,248 sq. ft. 108,900 sq. ft. $293
2018-05-31 Single Family 1614 Stony Brook Drive Salinas, CA 93906 $535,900 1,814 sq. ft. 5,663 sq. ft. $295
2018-05-31 Single Family 17562 Milano Street Salinas, CA 93907 $356,139 1,389 sq. ft. 6,970 sq. ft. $256
2018-05-31 Single Family 51 Myrtle Court Salinas, CA 93905 $369,000 974 sq. ft. 7,405 sq. ft. $379
2018-05-31 Single Family 8226 Messick Road Salinas, CA 93907 $735,000 2,003 sq. ft. 32,670 sq. ft. $367
2018-05-30 Single Family Ranch 7328 Valle Pacifico Road Salinas, CA 93907 $639,000 1,840 sq. ft. 266,587 sq. ft. $347
2018-05-30 Single Family Ranch 663 La Mesa Drive Salinas, CA 93901 $630,000 2,130 sq. ft. 6,534 sq. ft. $296
2018-05-30 Single Family 224 Massolo Court Salinas, CA 93907 $529,000 1,723 sq. ft. 5,227 sq. ft. $307
2018-05-29 Single Family Traditional 1346 New Hampshire Court Salinas, CA 93905 $485,000 1,742 sq. ft. 3,049 sq. ft. $278
2018-05-29 Single Family 2233 San Miguel Canyon Road Salinas, CA 93907 $795,000 1,488 sq. ft. 108,900 sq. ft. $534
2018-05-29 Single Family 1028 Capri Way Salinas, CA 93905 $515,000 2,131 sq. ft. 4,356 sq. ft. $242
2018-05-29 Single Family Ranch 751 Montecito Way Salinas, CA 93901 $589,900 1,800 sq. ft. 6,098 sq. ft. $328
2018-05-29 Single Family Ranch 1305 Adams Street Salinas, CA 93906 $399,000 1,479 sq. ft. 6,970 sq. ft. $270
2018-05-25 Single Family Ranch 12956 Arthur Street Salinas, CA 93906 $425,000 1,111 sq. ft. 5,663 sq. ft. $383
2018-05-25 Single Family Ranch 210 Encinada Drive Salinas, CA 93901 $649,000 2,350 sq. ft. 6,970 sq. ft. $276
2018-05-25 Single Family 1572 Cherokee Drive Salinas, CA 93906 $355,000 1,002 sq. ft. 3,049 sq. ft. $354
2018-05-25 Single Family 1719 Burlington Drive Salinas, CA 93906 $509,900 1,682 sq. ft. 6,098 sq. ft. $303
2018-05-25 Single Family 1684 Atherton Way Salinas, CA 93906 $529,900 2,401 sq. ft. 6,970 sq. ft. $221
2018-05-24 Single Family 1301 1st Avenue Salinas, CA 93905 $469,000 1,043 sq. ft. 6,098 sq. ft. $450
2018-05-24 Single Family Contemporary 1304 Cherokee Drive Salinas, CA 93906 $399,000 1,553 sq. ft. 9,148 sq. ft. $257
2018-05-23 Single Family 994 Chamise Drive Salinas, CA 93905 $469,000 1,442 sq. ft. 4,356 sq. ft. $325
2018-05-23 Single Family 1796 Windsor Street Salinas, CA 93906 $699,000 2,535 sq. ft. 6,098 sq. ft. $276
2018-05-23 Single Family 328 Bush Street Salinas, CA 93907 $394,500 1,080 sq. ft. 5,663 sq. ft. $365
2018-05-22 Single Family 449 Carol Drive Salinas, CA 93905 $449,000 1,799 sq. ft. 6,098 sq. ft. $250
2018-05-21 Single Family 238 Terra Drive Salinas, CA 93906 $439,000 1,730 sq. ft. 7,405 sq. ft. $254
2018-05-19 Single Family 416 Comanche Way Salinas, CA 93906 $489,000 2,068 sq. ft. 9,148 sq. ft. $236
2018-05-19 Single Family 863 Van Ness Court Salinas, CA 93907 $478,500 1,102 sq. ft. 6,098 sq. ft. $434
2018-05-19 Single Family 221 Dororo Drive Salinas, CA 93906 $379,999 919 sq. ft. 7,405 sq. ft. $413
2018-05-18 Single Family 25503 John Steinbeck Trail Salinas, CA 93908 $1,150,000 2,964 sq. ft. 8,712 sq. ft. $388
2018-05-18 Single Family 625 Cornell Avenue Salinas, CA 93901 $499,000 2,068 sq. ft. 4,792 sq. ft. $241
2018-05-18 Single Family 1866 Hemingway Drive Salinas, CA 93906 $599,800 2,351 sq. ft. 6,534 sq. ft. $255
2018-05-18 Single Family 13260 Louise Street Salinas, CA 93906 $439,000 1,462 sq. ft. 7,405 sq. ft. $300
2018-05-18 Single Family 116 Bernal Drive Salinas, CA 93906 $339,000 958 sq. ft. 3,485 sq. ft. $354
2018-05-18 Single Family 309 Boeing Avenue Salinas, CA 93906 $394,900 934 sq. ft. 7,405 sq. ft. $423
2018-05-17 Single Family Ranch 523 Napa Way Salinas, CA 93906 $545,000 2,008 sq. ft. 6,534 sq. ft. $271
2018-05-17 Single Family Traditional 18975 Souza Way Salinas, CA 93906 $510,000 1,799 sq. ft. 6,534 sq. ft. $283
2018-05-17 Single Family 8 Hyde Circle Salinas, CA 93907 $479,000 1,234 sq. ft. 7,405 sq. ft. $388
2018-05-16 Single Family 1573 Sepulveda Drive Salinas, CA 93906 $449,000 1,775 sq. ft. 3,485 sq. ft. $253
2018-05-16 Single Family 1231 La Mirada Drive Salinas, CA 93901 $619,000 2,300 sq. ft. 7,405 sq. ft. $269
2018-05-16 Single Family 260 Winham Street Salinas, CA 93901 $490,000 1,230 sq. ft. 6,098 sq. ft. $398
2018-05-16 Single Family 1205 Monroe Street Salinas, CA 93906 $395,000 920 sq. ft. 7,405 sq. ft. $429
2018-05-15 Single Family 1123 Cobblestone Street Salinas, CA 93905 $485,000 1,823 sq. ft. 4,356 sq. ft. $266
2018-05-15 Single Family 1609 Piazza Drive Salinas, CA 93905 $439,000 1,240 sq. ft. 3,920 sq. ft. $354
2018-05-15 Single Family 1186 Rockhaven Court Salinas, CA 93906 $549,000 2,047 sq. ft. 6,534 sq. ft. $268
2018-05-14 Single Family 438 Sonora Way Salinas, CA 93906 $430,000 1,192 sq. ft. 6,098 sq. ft. $361
2018-05-14 Single Family 408 Kipling Street Salinas, CA 93901 $559,000 1,605 sq. ft. 4,356 sq. ft. $348
2018-05-12 Single Family Mediterranean 26169 Legends Court Salinas, CA 93908 $1,350,000 4,307 sq. ft. 14,810 sq. ft. $313
2018-05-12 Single Family 1315 Cachuma Court Salinas, CA 93905 $469,900 1,793 sq. ft. 5,227 sq. ft. $262
2018-05-11 Single Family Ranch 8051 Vierra Meadows Pl Salinas, CA 93907 $695,000 1,723 sq. ft. 57,499 sq. ft. $403
2018-05-11 Single Family 472 Dorset Way Salinas, CA 93906 $659,980 2,922 sq. ft. 5,663 sq. ft. $226
2018-05-11 Single Family Ranch 10734 Country Meadows Road Salinas, CA 93907 $699,950 1,772 sq. ft. 73,616 sq. ft. $395
2018-05-11 Single Family Traditional 114 Church Street Salinas, CA 93901 $550,000 1,496 sq. ft. 6,098 sq. ft. $368
2018-05-11 Single Family 705 Nacional Court Salinas, CA 93901 $614,900 2,227 sq. ft. 5,663 sq. ft. $276
2018-05-11 Single Family Contemporary 17 Rhine Circle Salinas, CA 93906 $629,000 2,662 sq. ft. 6,098 sq. ft. $236
2018-05-11 Single Family 19625 Redding Drive Salinas, CA 93908 $1,049,900 3,163 sq. ft. 43,560 sq. ft. $332
2018-05-11 Single Family 22115 Berry Drive Salinas, CA 93908 $789,999 2,139 sq. ft. 13,068 sq. ft. $369
2018-05-11 Single Family Traditional 1310 Rossano Court Salinas, CA 93905 $674,999 3,164 sq. ft. 6,534 sq. ft. $213
2018-05-11 Single Family Custom 410 Laurel Lane Salinas, CA 93908 $1,699,000 2,743 sq. ft. 54,450 sq. ft. $619
2018-05-11 Single Family Ranch 14166 Reservation Road Salinas, CA 93908 $825,800 2,532 sq. ft. 6,098 sq. ft. $326
2018-05-11 Single Family 13580 Paseo Terrano Salinas, CA 93908 $1,299,000 3,040 sq. ft. 24,394 sq. ft. $427
2018-05-11 Single Family 19168 Garden Valley Way Salinas, CA 93908 $1,035,000 3,645 sq. ft. 12,197 sq. ft. $284
2018-05-11 Single Family 17965 Tanleaf Lane Salinas, CA 93907 $799,000 2,525 sq. ft. 43,996 sq. ft. $316
2018-05-11 Single Family Contemporary 27465 Vista Del Toro Place Salinas, CA 93908 $915,000 1,830 sq. ft. 108,900 sq. ft. $500
2018-05-11 Single Family 19116 Marjorie Road Salinas, CA 93907 $749,000 2,636 sq. ft. 43,560 sq. ft. $284
2018-05-11 Single Family 7645 Sleepy Hollow Lane Salinas, CA 93907 $678,000 2,160 sq. ft. 53,579 sq. ft. $314
2018-05-11 Single Family 24645 Foothill Drive Salinas, CA 93908 $799,000 2,527 sq. ft. 43,560 sq. ft. $316
2018-05-11 Single Family Ranch 18411 Moro Road Salinas, CA 93907 $465,000 1,664 sq. ft. 108,900 sq. ft. $279
2018-05-11 Single Family 442 Shelley Way Salinas, CA 93901 $565,000 1,782 sq. ft. 4,792 sq. ft. $317
2018-05-11 Single Family 519 Chaparral Street Salinas, CA 93906 $440,000 1,786 sq. ft. 6,098 sq. ft. $246
2018-05-11 Single Family 912 Provincetown Drive Salinas, CA 93906 $535,000 2,071 sq. ft. 6,534 sq. ft. $258
2018-05-11 Single Family 1872 Bradbury Street Salinas, CA 93906 $498,000 1,928 sq. ft. 3,920 sq. ft. $258
2018-05-11 Single Family 1549 Canelli Court Salinas, CA 93905 $569,000 2,631 sq. ft. 4,792 sq. ft. $216
2018-05-11 Single Family 105 Laurel Drive Salinas, CA 93906 $474,000 1,500 sq. ft. 6,534 sq. ft. $316
2018-05-11 Single Family Victorian 30 Central Avenue Salinas, CA 93901 $575,000 1,489 sq. ft. 8,276 sq. ft. $386
2018-05-11 Single Family 860 Lexington Drive Salinas, CA 93906 $535,000 2,071 sq. ft. 7,841 sq. ft. $258
2018-05-11 Single Family 1968 Bradbury Street Salinas, CA 93906 $489,000 1,681 sq. ft. 3,920 sq. ft. $291
2018-05-11 Single Family 1236 Paseo Grande Salinas, CA 93905 $465,000 1,364 sq. ft. 6,534 sq. ft. $341
2018-05-11 Single Family 1875 Lancashire Drive Salinas, CA 93906 $469,000 1,437 sq. ft. 6,098 sq. ft. $326
2018-05-11 Single Family 18635 Van Buren Avenue Salinas, CA 93906 $449,900 1,476 sq. ft. 6,098 sq. ft. $305
2018-05-11 Single Family Bungalow 43 Pine Street Salinas, CA 93901 $469,000 1,314 sq. ft. 6,534 sq. ft. $357
2018-05-11 Single Family 1274 1st Avenue Salinas, CA 93905 $375,000 1,068 sq. ft. 9,583 sq. ft. $351
2018-05-11 Single Family 420 Boronda Road Salinas, CA 93907 $299,900 1,008 sq. ft. 8,276 sq. ft. $298
2018-05-11 Single Family 1301 Tampico Avenue Salinas, CA 93906 $399,000 1,192 sq. ft. 6,098 sq. ft. $335
2018-05-11 Single Family 1533 Barcelona Circle Salinas, CA 93906 $390,000 1,125 sq. ft. 3,049 sq. ft. $347
2018-05-11 Single Family 2 Bernal Drive Salinas, CA 93906 $319,900 1,008 sq. ft. 3,049 sq. ft. $317
2018-05-11 Single Family 4 Bernal Drive Salinas, CA 93906 $319,900 958 sq. ft. 5,663 sq. ft. $334
2018-05-10 Single Family 24255 Pheasant Court Salinas, CA 93908 $899,000 1,869 sq. ft. 7,841 sq. ft. $481
2018-05-10 Single Family 225 River Road Salinas, CA 93908 $1,400,000 1,739 sq. ft. 1,742,400 sq. ft. $805
2018-05-10 Single Family Mediterranean 1854 Cromwell Drive Salinas, CA 93906 $610,000 2,447 sq. ft. 6,098 sq. ft. $249
2018-05-10 Single Family 8630 Berta Canyon Court Salinas, CA 93907 $699,995 2,052 sq. ft. 22,651 sq. ft. $341
2018-05-10 Single Family Spanish 842 Provincetown Drive Salinas, CA 93906 $640,000 2,605 sq. ft. 5,663 sq. ft. $246
2018-05-10 Single Family 22480 Estoque Place Salinas, CA 93908 $939,900 2,924 sq. ft. 10,890 sq. ft. $321
2018-05-10 Single Family 16 Tokay Circle Salinas, CA 93906 $607,999 2,662 sq. ft. 7,841 sq. ft. $228
2018-05-10 Single Family Ranch 75 Harper Canyon Road Salinas, CA 93908 $825,000 1,738 sq. ft. 78,408 sq. ft. $475
2018-05-10 Single Family 13 Paseo Tercero Salinas, CA 93908 $660,000 1,356 sq. ft. 11,761 sq. ft. $487
2018-05-10 Single Family 14550 Mountain Quail Road Salinas, CA 93908 $910,000 2,824 sq. ft. 5,663 sq. ft. $322
2018-05-10 Single Family 1148 Cape Cod Way Salinas, CA 93906 $560,000 2,414 sq. ft. 6,534 sq. ft. $232
2018-05-10 Single Family Mediterranean 1554 Manchester Drive Salinas, CA 93906 $469,000 1,315 sq. ft. 3,920 sq. ft. $357
2018-05-10 Single Family 44 Marion Avenue Salinas, CA 93901 $489,000 1,203 sq. ft. 6,534 sq. ft. $406
2018-05-10 Single Family 1783 Broadway Drive Salinas, CA 93906 $525,000 1,618 sq. ft. 5,227 sq. ft. $324
2018-05-10 Single Family Spanish 214 Curtis Street Salinas, CA 93906 $399,999 1,067 sq. ft. 6,970 sq. ft. $375
2018-05-10 Single Family 1279 Nogal Drive Salinas, CA 93905 $309,000 960 sq. ft. 4,792 sq. ft. $322
2018-05-10 Single Family 312 Primavera Way Salinas, CA 93901 $539,000 2,175 sq. ft. 5,227 sq. ft. $248
2018-05-10 Single Family 964 Sage Court Salinas, CA 93905 $469,900 1,806 sq. ft. 4,356 sq. ft. $260
2018-05-10 Single Family 1650 Georgetown Way Salinas, CA 93906 $450,000 1,429 sq. ft. 7,405 sq. ft. $315
2018-05-10 Single Family Ranch 1823 Coventry Street Salinas, CA 93906 $525,000 1,494 sq. ft. 8,276 sq. ft. $351
2018-05-10 Single Family 13141 Arthur Court Salinas, CA 93906 $414,900 1,191 sq. ft. 6,970 sq. ft. $348
2018-05-10 Single Family 6 Stony Brook Circle Salinas, CA 93906 $549,000 1,814 sq. ft. 6,534 sq. ft. $303
2018-05-10 Single Family Traditional 1334 Riker Street Salinas, CA 93901 $525,000 1,929 sq. ft. 6,534 sq. ft. $272
2018-05-10 Single Family 296 River Road Salinas, CA 93908 $589,000 1,271 sq. ft. 20,909 sq. ft. $463
2018-05-10 Single Family Traditional 633 Fairmont Drive Salinas, CA 93901 $480,000 1,230 sq. ft. 6,098 sq. ft. $390
2018-05-10 Single Family Tudor 330 Lorimer Street Salinas, CA 93901 $570,000 2,100 sq. ft. 7,405 sq. ft. $271
2018-05-10 Single Family 1672 Georgetown Way Salinas, CA 93906 $449,000 1,429 sq. ft. 3,920 sq. ft. $314
2018-05-10 Single Family 9796 Borromeo Drive Salinas, CA 93907 $562,000 1,493 sq. ft. 13,504 sq. ft. $376
2018-05-10 Single Family Contemporary 577 Larkin St Salinas, CA 93907 $599,888 2,484 sq. ft. 6,534 sq. ft. $242
2018-05-10 Single Family 1405 1st Avenue Salinas, CA 93905 $375,000 1,074 sq. ft. 6,970 sq. ft. $349
2018-05-10 Single Family 2006 Santa Rita Street Salinas, CA 93906 $340,000 528 sq. ft. 4,356 sq. ft. $644
2018-05-10 Single Family 115 Filice Street Salinas, CA 93905 $349,900 740 sq. ft. 6,098 sq. ft. $473
2018-03-27 Single Family 1066 Polk Street Salinas, CA 93906 $405,000 1,127 sq. ft. 6,098 sq. ft. $359
2018-03-24 Single Family 18314 Vierra Canyon Road Salinas, CA 93907 $399,900 650 sq. ft. 62,726 sq. ft. $615
2018-03-23 Single Family 25 4th Street Salinas, CA 93906 $428,000 1,519 sq. ft. 7,405 sq. ft. $282
2018-03-23 Single Family 1544 Ebro Circle Salinas, CA 93906 $365,000 1,002 sq. ft. 3,049 sq. ft. $364
2018-03-20 Single Family 139 Manzanita Way Salinas, CA 93908 $745,000 1,730 sq. ft. 12,197 sq. ft. $431
2018-03-19 Single Family 18832 Moro Road Salinas, CA 93907 $520,000 1,263 sq. ft. 12,197 sq. ft. $412
2018-03-15 Single Family 1520 Caceras Circle Salinas, CA 93906 $415,000 1,125 sq. ft. 3,049 sq. ft. $369
2018-03-15 Single Family Traditional 8520 Coker Road Salinas, CA 93907 $975,000 4,592 sq. ft. 141,570 sq. ft. $212
2018-03-15 Single Family Traditional 1667 Boston Street Salinas, CA 93906 $569,500 2,413 sq. ft. 5,227 sq. ft. $236
2018-03-14 Single Family 7665 Sleepy Hollow Lane Salinas, CA 93907 $479,000 1,344 sq. ft. 43,560 sq. ft. $356
2018-03-14 Single Family Ranch 9843 Brookgrass Place Salinas, CA 93907 $615,000 1,980 sq. ft. 11,326 sq. ft. $311
2018-03-14 Single Family Mediterranean 1713 Beacon Hill Drive Salinas, CA 93906 $549,000 2,487 sq. ft. 5,663 sq. ft. $221
2018-03-14 Single Family 1017 Snug Harbor Street Salinas, CA 93906 $568,500 2,400 sq. ft. 5,663 sq. ft. $237
2018-03-14 Single Family 1676 Boston Street Salinas, CA 93906 $553,500 2,207 sq. ft. 9,583 sq. ft. $251
2018-03-12 Single Family Ranch 9859 Brookgrass Place Salinas, CA 93907 $619,000 2,023 sq. ft. 6,098 sq. ft. $306
2018-03-09 Single Family Contemporary 8721 Lilac Court Salinas, CA 93907 $849,000 2,987 sq. ft. 44,431 sq. ft. $284
2018-03-08 Single Family 27726 Crowne Point Court Salinas, CA 93908 $980,000 2,898 sq. ft. 51,836 sq. ft. $338
2018-03-07 Single Family 947 Snug Harbor Street Salinas, CA 93906 $400,000 1,501 sq. ft. 4,356 sq. ft. $266
2018-03-06 Single Family Traditional 2 Cedros Avenue Salinas, CA 93901 $599,000 1,913 sq. ft. 10,454 sq. ft. $313
2018-03-04 Single Family 1249 La Canada Way Salinas, CA 93901 $587,000 1,955 sq. ft. 7,405 sq. ft. $300
2018-03-02 Single Family 446 Calaveras Drive Salinas, CA 93906 $335,000 870 sq. ft. 3,485 sq. ft. $385
2018-03-02 Single Family Ranch 69 Laureles Grade Salinas, CA 93908 $750,000 1,908 sq. ft. 76,230 sq. ft. $393
2018-03-01 Single Family 17 Wimbledon Circle Salinas, CA 93906 $499,000 2,473 sq. ft. 15,682 sq. ft. $202
2018-03-01 Single Family 23540 Belmont Circle Salinas, CA 93908 $1,849,000 5,001 sq. ft. 136,778 sq. ft. $370
2018-02-28 Single Family 79 Crazy Horse Canyon Road Salinas, CA 93907 $749,000 1,957 sq. ft. 109,336 sq. ft. $383
2018-02-28 Single Family 250 Dororo Drive Salinas, CA 93906 $499,000 1,671 sq. ft. 6,534 sq. ft. $299
2018-02-27 Single Family 8650 Woodland Heights Court Salinas, CA 93907 $917,124 3,312 sq. ft. 120,226 sq. ft. $277
2018-02-27 Single Family 856 Canterbury Street Salinas, CA 93906 $550,000 2,071 sq. ft. 6,970 sq. ft. $266
2018-02-25 Single Family 736 Burke Street Salinas, CA 93905 $377,000 1,500 sq. ft. 6,534 sq. ft. $251
2018-02-24 Single Family 1012 Eagle Drive Salinas, CA 93905 $459,000 1,549 sq. ft. 4,792 sq. ft. $296
2018-02-23 Single Family Mediterranean; Ranch; Spanish 364 San Benancio Road Salinas, CA 93908 $3,000,000 3,373 sq. ft. 1,767,229 sq. ft. $889
2018-02-21 Single Family 1311 2nd Avenue Salinas, CA 93905 $355,000 1,520 sq. ft. 7,841 sq. ft. $234
2018-02-19 Single Family Contemporary 1272 De Cunha Court Salinas, CA 93906 $568,000 2,394 sq. ft. 5,663 sq. ft. $237
2018-02-14 Single Family 15891 Meridian Road Salinas, CA 93907 $499,000 1,512 sq. ft. 175,982 sq. ft. $330
2018-02-14 Single Family 1202 Garner Avenue Salinas, CA 93905 $328,000 919 sq. ft. 6,970 sq. ft. $357
2018-02-14 Single Family 19619 Longview Terrace Salinas, CA 93908 $1,225,000 4,307 sq. ft. 45,738 sq. ft. $284
2018-02-13 Single Family 18634 Cleveland Avenue Salinas, CA 93906 $419,000 1,102 sq. ft. 6,970 sq. ft. $380
2018-02-09 Single Family 1053 Del Monte Avenue Salinas, CA 93905 $369,000 799 sq. ft. 11,761 sq. ft. $462
2018-02-07 Single Family 2 Cabernet Circle Salinas, CA 93906 $594,000 2,324 sq. ft. 6,534 sq. ft. $256
2018-02-05 Single Family 19195 Pesante Road Salinas, CA 93907 $885,900 3,600 sq. ft. 62,291 sq. ft. $246
2018-02-02 Single Family Farm House 63 Hitchcock Road Salinas, CA 93908 $695,000 2,204 sq. ft. 21,780 sq. ft. $315
2018-01-31 Single Family Ranch 729 California Street Salinas, CA 93901 $399,900 914 sq. ft. 6,098 sq. ft. $438
2018-01-25 Single Family 209 Pine Canyon Road Salinas, CA 93908 $2,099,000 7,202 sq. ft. 228,690 sq. ft. $291
2018-01-08 Single Family Contemporary 844 Bautista Drive Salinas, CA 93901 $515,000 1,566 sq. ft. 6,098 sq. ft. $329
2018-01-06 Single Family 1129 Cobblestone Street Salinas, CA 93905 $470,000 1,427 sq. ft. 3,920 sq. ft. $329
2018-01-02 Single Family 13230 Louise Street Salinas, CA 93906 $349,000 1,766 sq. ft. 6,098 sq. ft. $198
2017-12-18 Single Family Traditional 19230 Mallory Canyon Road Salinas, CA 93907 $569,900 2,248 sq. ft. 37,897 sq. ft. $254
2017-12-11 Single Family Traditional 10755 Country Meadows Road Salinas, CA 93907 $730,000 2,111 sq. ft. 44,431 sq. ft. $346
2017-11-22 Single Family Ranch 22682 Torero Drive Salinas, CA 93908 $689,000 1,560 sq. ft. 10,019 sq. ft. $442
2017-11-11 Single Family 27219 Cortina Way Salinas, CA 93908 $899,900 2,898 sq. ft. 10,454 sq. ft. $311
2017-10-18 Single Family 19540 Cortina Court Salinas, CA 93908 $875,000 2,898 sq. ft. 28,314 sq. ft. $302
2017-09-27 Single Family 1834 Massachusetts Drive Salinas, CA 93905 $525,000 2,607 sq. ft. 3,920 sq. ft. $201
2017-09-21 Single Family 24015 Ranchito Del Rio Court Salinas, CA 93908 $2,100,000 6,986 sq. ft. 43,996 sq. ft. $301
2017-09-20 Single Family Bungalow; Ranch 350 San Benancio Road Salinas, CA 93908 $2,579,000 1,968 sq. ft. 1,574,694 sq. ft. $1,310
2017-09-20 Single Family 486 Corral De Tierra Road Salinas, CA 93908 $3,100,000 4,190 sq. ft. 1,937,984 sq. ft. $740
2017-07-21 Single Family 27111 Prestancia Way Salinas, CA 93908 $772,000 2,898 sq. ft. 9,583 sq. ft. $266
2017-07-20 Single Family Bungalow; Ranch 350 San Benancio Road Salinas, CA 93908 $2,579,000 1,968 sq. ft. 1,574,694 sq. ft. $1,310
2017-06-21 Single Family 464 Comanche Way Salinas, CA 93906 $399,750 1,441 sq. ft. 5,998 sq. ft. $277
2017-06-21 Single Family 7206 Langley Canyon Rd Salinas, CA 93907 $599,900 1,582 sq. ft. 51,401 sq. ft. $379
2017-06-21 Single Family 191 Paradise Rd Salinas, CA 93907 $559,900 1,473 sq. ft. 44,431 sq. ft. $380
2017-06-21 Single Family 1827 Bradbury St Salinas, CA 93906 $469,000 1,681 sq. ft. 3,167 sq. ft. $279
2017-06-19 Single Family 1827 Hemingway Dr Salinas, CA 93906 $465,000 1,681 sq. ft. 3,097 sq. ft. $277
2017-06-19 Single Family 54 Chestnut St Salinas, CA 93901 $542,000 1,903 sq. ft. 7,802 sq. ft. $285
2017-06-19 Single Family 1932 Chelsea Ct Salinas, CA 93906 $637,000 3,043 sq. ft. 6,647 sq. ft. $209
2017-06-19 Single Family 505 Harding Cir Salinas, CA 93906 $425,000 1,427 sq. ft. 11,892 sq. ft. $298
2017-06-18 Single Family 130 N 2nd St Salinas, CA 93906 $379,900 1,173 sq. ft. 6,599 sq. ft. $324
2017-06-17 Single Family 1073 W Alisal St Salinas, CA 93901 $529,900 1,525 sq. ft. 8,499 sq. ft. $347
2017-06-17 Single Family 121 Rodeo Ave Salinas, CA 93906 $309,900 861 sq. ft. 4,400 sq. ft. $360
2017-06-17 Single Family 18463 Deertrack Pl Salinas, CA 93908 $775,000 2,841 sq. ft. 8,102 sq. ft. $273
2017-06-17 Single Family 346 Block Ave Salinas, CA 93906 $359,000 1,039 sq. ft. 3,498 sq. ft. $346
2017-06-16 Single Family Contemporary 7 Somersworth Cir Salinas, CA 93906 $529,000 2,225 sq. ft. 6,098 sq. ft. $238
2017-06-16 Single Family 144 E Romie Ln Salinas, CA 93901 $485,000 1,365 sq. ft. 7,902 sq. ft. $355
2017-06-16 Single Family 321 Tynan Way Salinas, CA 93906 $584,999 2,057 sq. ft. 6,456 sq. ft. $284
2017-06-16 Single Family 1387 New Hampshire Ct Salinas, CA 93905 $425,000 2,398 sq. ft. 5,144 sq. ft. $177
2017-06-15 Single Family 25400 Paseo Del Chaparral Salinas, CA 93908 $1,980,000 4,009 sq. ft. 130,680 sq. ft. $494
2017-06-15 Single Family 1068 Sherman Dr Salinas, CA 93907 $379,000 1,130 sq. ft. 3,341 sq. ft. $335
2017-06-15 Single Family 123 Chestnut St Salinas, CA 93901 $540,000 1,620 sq. ft. 6,499 sq. ft. $333
2017-06-15 Single Family Craftsman 22390 Berry Dr Salinas, CA 93908 $1,249,000 2,879 sq. ft. 108,900 sq. ft. $434
2017-06-14 Single Family 2 Mesa Del Sol Salinas, CA 93908 $1,200,000 3,324 sq. ft. 47,045 sq. ft. $361
2017-06-14 Single Family 527 Chaparral St Salinas, CA 93906 $385,000 1,634 sq. ft. 5,998 sq. ft. $236
2017-06-14 Single Family 9580 Prunedale South Rd Salinas, CA 93907 $620,000 1,456 sq. ft. 32,234 sq. ft. $426
2017-06-14 Single Family 1334 Riker St Salinas, CA 93901 $549,900 1,929 sq. ft. 6,700 sq. ft. $285
2017-06-14 Single Family 241 Montclair Ln Salinas, CA 93906 $499,000 1,587 sq. ft. 4,234 sq. ft. $314
2017-06-14 Single Family 33 Whitman Cir Salinas, CA 93906 $639,000 2,624 sq. ft. 8,638 sq. ft. $244
2017-06-13 Single Family 2147 San Miguel Canyon Rd Salinas, CA 93907 $399,900 843 sq. ft. 20,007 sq. ft. $474
2017-06-13 Single Family Mediterranean; Ranch; Spanish; Traditional 20150 Tarawild Ct Salinas, CA 93907 $777,000 2,370 sq. ft. 298,386 sq. ft. $328
2017-06-12 Single Family 148 Greenbriar Way Salinas, CA 93907 $582,500 2,337 sq. ft. 5,384 sq. ft. $249
2017-06-12 Single Family Ranch 19855 Hopewell Dr Salinas, CA 93907 $649,000 1,622 sq. ft. 108,900 sq. ft. $400
2017-06-12 Single Family 752 Josephine St Salinas, CA 93905 $210,000 1,008 sq. ft. 8,298 sq. ft. $208
2017-06-12 Single Family Mediterranean 431 Victoria Ave Salinas, CA 93906 $595,000 1,920 sq. ft. 7,588 sq. ft. $310
2017-06-11 Single Family 1243 Pasatiempo Way Salinas, CA 93901 $668,880 1,613 sq. ft. 6,970 sq. ft. $415
2017-06-10 Single Family Spanish 429 Alameda Ave Salinas, CA 93901 $555,000 1,680 sq. ft. 6,599 sq. ft. $330
2017-06-10 Single Family 63 Paseo Hermoso Salinas, CA 93908 $1,397,000 2,500 sq. ft. 89,433 sq. ft. $559
2017-06-10 Single Family Cabin; Contemporary 14693 Charter Oak Blvd Salinas, CA 93907 $589,000 2,218 sq. ft. 12,998 sq. ft. $266
2017-06-10 Single Family 395 Echo Valley Rd C Salinas, CA 93907 $624,900 1,680 sq. ft. 52,272 sq. ft. $372
2017-06-10 Single Family 17516 Woodridge Ct Salinas, CA 93908 $599,000 1,764 sq. ft. 3,585 sq. ft. $340
2017-06-10 Single Family 1117 Jean Ave Salinas, CA 93905 $360,000 977 sq. ft. 5,998 sq. ft. $368
2017-06-10 Single Family Traditional 742 Nacional Ct Salinas, CA 93901 $535,000 1,542 sq. ft. 6,534 sq. ft. $347
2017-06-08 Single Family 22150 Berry Dr Salinas, CA 93908 $525,000 1,271 sq. ft. 10,102 sq. ft. $413
2017-06-07 Single Family 624 Alameda Ave Salinas, CA 93901 $575,000 1,956 sq. ft. 7,000 sq. ft. $294
2017-06-07 Single Family 840 Capistrano Dr Salinas, CA 93901 $450,000 1,131 sq. ft. 6,499 sq. ft. $398
2017-06-07 Single Family 1156 Raven Ct Salinas, CA 93905 $499,000 2,255 sq. ft. 5,554 sq. ft. $221
2017-06-07 Single Family 1628 Marshfield Ct Salinas, CA 93906 $549,900 1,659 sq. ft. 7,096 sq. ft. $331
2017-06-06 Single Family 246 La Mesa Dr Salinas, CA 93901 $515,000 1,396 sq. ft. 6,499 sq. ft. $369
2017-06-05 Single Family 1692 Seville St Salinas, CA 93906 $375,000 1,170 sq. ft. 3,306 sq. ft. $321
2017-06-05 Single Family Traditional 313 Addington Ln Salinas, CA 93907 $199,000 955 sq. ft. 11,800 sq. ft. $208
2017-06-05 Single Family Bungalow 1208 Polk St Salinas, CA 93906 $370,000 850 sq. ft. 7,200 sq. ft. $435
2017-06-05 Single Family Bungalow 10385 Reese Cir Salinas, CA 93907 $650,000 936 sq. ft. 95,832 sq. ft. $694
2017-06-05 Single Family 1773 Delancey Dr Salinas, CA 93906 $488,900 1,618 sq. ft. 4,966 sq. ft. $302
2017-06-05 Single Family Bungalow 111 Hawthorne St Salinas, CA 93901 $462,500 928 sq. ft. 7,100 sq. ft. $498
2017-06-03 Single Family 1563 Verona Ct Salinas, CA 93905 $419,900 1,240 sq. ft. 4,095 sq. ft. $339
2017-06-03 Single Family 6915 Lakeview Dr Salinas, CA 93907 $520,000 1,395 sq. ft. 15,246 sq. ft. $373
2017-06-03 Single Family 9405 Silk Oak Pl Salinas, CA 93907 $619,950 1,966 sq. ft. 17,250 sq. ft. $315
2017-06-03 Single Family 22616 Black Mountain Rd Salinas, CA 93908 $650,000 2,067 sq. ft. 32,409 sq. ft. $314
2017-06-03 Single Family Traditional 1552 Los Altos Way Salinas, CA 93906 $489,000 1,939 sq. ft. 5,663 sq. ft. $252
2017-06-01 Single Family 1074 Bison Way Salinas, CA 93905 $449,000 1,353 sq. ft. 4,792 sq. ft. $332
2017-06-01 Single Family Mediterranean 14501 Roland Canyon Rd Salinas, CA 93908 $3,600,000 6,330 sq. ft. 471,319 sq. ft. $569
2017-06-01 Single Family Mediterranean 18830 Tiburcio Ct Salinas, CA 93908 $759,000 2,259 sq. ft. 13,983 sq. ft. $336
2017-06-01 Single Family Country English; Tudor 19607 Brentwood Ct Salinas, CA 93907 $654,888 2,206 sq. ft. 43,560 sq. ft. $297
2017-05-31 Single Family 1847 London Way Salinas, CA 93906 $555,000 1,974 sq. ft. 6,578 sq. ft. $281
2017-05-31 Single Family Cottage 13 Higuera Ln Salinas, CA 93907 $375,000 757 sq. ft. 19,079 sq. ft. $495
2017-05-30 Single Family 1731 Siskiyou Dr Salinas, CA 93906 $428,900 1,643 sq. ft. 5,750 sq. ft. $261
2017-05-30 Single Family 439 Corral De Tierra Rd Salinas, CA 93908 $799,000 2,454 sq. ft. 108,900 sq. ft. $326
2017-05-30 Single Family Contemporary 1552 Cambridge Ct Salinas, CA 93906 $619,500 2,239 sq. ft. 6,316 sq. ft. $277
2017-05-30 Single Family 1134 Cape Cod Way Salinas, CA 93906 $459,000 1,479 sq. ft. 5,401 sq. ft. $310
2017-05-27 Single Family 25507 Sunflower Ct Salinas, CA 93908 $635,000 1,570 sq. ft. 3,006 sq. ft. $404
2017-05-27 Single Family 17720 Riverbend Rd Salinas, CA 93908 $699,900 2,603 sq. ft. 4,966 sq. ft. $269
2017-05-26 Single Family Mediterranean 1552 Duran St Salinas, CA 93906 $389,000 1,170 sq. ft. 3,049 sq. ft. $332
2017-05-26 Single Family 7448 Leafwood Dr Salinas, CA 93907 $609,000 2,133 sq. ft. 45,302 sq. ft. $286
2017-05-26 Single Family 12925 Paseo Barranco Salinas, CA 93908 $1,144,000 5,300 sq. ft. 123,710 sq. ft. $216
2017-05-25 Single Family 21124 Country Park Rd Salinas, CA 93908 $598,500 1,764 sq. ft. 6,011 sq. ft. $339
2017-05-25 Single Family 15830 Avery Ln Salinas, CA 93907 $575,000 2,256 sq. ft. 108,900 sq. ft. $255
2017-05-25 Single Family Mediterranean; Ranch 1939 Oxford Ct Salinas, CA 93906 $537,500 1,920 sq. ft. 5,968 sq. ft. $280
2017-05-25 Single Family 1236 Hilltop Dr Salinas, CA 93905 $460,000 2,344 sq. ft. 14,201 sq. ft. $196
2017-05-25 Single Family 19851 Pesante Rd Salinas, CA 93907 $635,000 3,164 sq. ft. 70,132 sq. ft. $201
2017-05-25 Single Family Ranch 828 Fairfax Dr Salinas, CA 93901 $519,000 1,464 sq. ft. 6,599 sq. ft. $355
2017-05-24 Single Family Ranch 10755 Country Meadows Rd Salinas, CA 93907 $730,000 2,111 sq. ft. 44,431 sq. ft. $346
2017-05-23 Single Family Ranch 16081 Darcie Ln Salinas, CA 93908 $825,000 2,401 sq. ft. 13,634 sq. ft. $344
2017-05-23 Single Family Ranch 1662 Atherton Way Salinas, CA 93906 $474,500 1,763 sq. ft. 6,316 sq. ft. $269
2017-05-23 Single Family 924 San Vincente Ave Salinas, CA 93901 $615,000 1,787 sq. ft. 7,187 sq. ft. $344
2017-05-23 Single Family 26473 Honor Ln Salinas, CA 93908 $675,000 1,905 sq. ft. 7,405 sq. ft. $354
2017-05-23 Single Family 1036 Longfellow Dr Salinas, CA 93906 $525,000 1,974 sq. ft. 6,403 sq. ft. $266
2017-05-22 Single Family Contemporary; Mediterranean 10131 Meadow View Cir Salinas, CA 93907 $989,900 3,534 sq. ft. 55,757 sq. ft. $280
2017-05-22 Single Family 917 Beech St Salinas, CA 93905 $319,000 906 sq. ft. 6,403 sq. ft. $352
2017-05-22 Single Family Tudor 705 Nacional Ct Salinas, CA 93901 $735,000 2,250 sq. ft. 5,881 sq. ft. $327
2017-05-19 Single Family Contemporary 1104 C St Salinas, CA 93905 $379,500 768 sq. ft. 7,797 sq. ft. $494
2017-05-19 Single Family 1509 Madrone Dr Salinas, CA 93905 $489,999 2,227 sq. ft. 5,706 sq. ft. $220
2017-05-18 Single Family Craftsman 54 Capitol St Salinas, CA 93901 $445,000 1,726 sq. ft. 7,187 sq. ft. $258
2017-05-18 Single Family Contemporary 1311 Dickens Dr Salinas, CA 93901 $539,000 1,663 sq. ft. 7,013 sq. ft. $324
2017-05-18 Single Family Ranch 9818 Rye Ct Salinas, CA 93907 $569,000 1,792 sq. ft. 13,939 sq. ft. $318
2017-05-18 Single Family Contemporary 89 Clark St Salinas, CA 93901 $367,500 884 sq. ft. 6,186 sq. ft. $416
2017-05-17 Single Family 100 Robley Rd Salinas, CA 93908 $969,000 2,289 sq. ft. 209,088 sq. ft. $423
2017-05-17 Single Family 320 Capitol St Salinas, CA 93901 $620,000 3,056 sq. ft. 11,718 sq. ft. $203
2017-05-17 Single Family 1061 Sardinia Dr Salinas, CA 93905 $534,990 2,012 sq. ft. 4,574 sq. ft. $266
2017-05-17 Single Family 221 Pine St Salinas, CA 93901 $529,900 1,518 sq. ft. 6,795 sq. ft. $349
2017-05-16 Single Family Traditional 1235 De Cunha Ct Salinas, CA 93906 $539,000 2,591 sq. ft. 6,795 sq. ft. $208
2017-05-15 Single Family 12326 Maravilla Dr Salinas, CA 93908 $1,075,000 3,462 sq. ft. 67,387 sq. ft. $311
2017-05-15 Single Family 24845 Corte Poco 24845 Salinas, CA 93908 $879,000 2,562 sq. ft. 94,961 sq. ft. $343
2017-05-13 Single Family 1869 Bradbury St Salinas, CA 93906 $428,000 1,397 sq. ft. 2,526 sq. ft. $306
2017-05-12 Single Family 13225 Louise St Salinas, CA 93906 $417,000 1,337 sq. ft. 5,663 sq. ft. $312
2017-05-12 Single Family 6985 Lakeview Dr Salinas, CA 93907 $565,000 1,406 sq. ft. 21,344 sq. ft. $402
2017-05-11 Single Family 1511 Aragon Cir Salinas, CA 93906 $319,900 1,002 sq. ft. 3,223 sq. ft. $319
2017-05-11 Single Family Traditional 21 Chestnut St Salinas, CA 93901 $569,000 1,890 sq. ft. 6,490 sq. ft. $301
2017-05-11 Single Family Traditional 16 San Pedro St Salinas, CA 93901 $529,000 1,580 sq. ft. 6,316 sq. ft. $335
2017-05-10 Single Family 38 Young Dr Salinas, CA 93901 $375,000 1,077 sq. ft. 5,706 sq. ft. $348
2017-05-10 Single Family Mediterranean 1134 Cobblestone St Salinas, CA 93905 $489,900 1,823 sq. ft. 4,051 sq. ft. $269
2017-05-10 Single Family 45 Buena Vista St Salinas, CA 93901 $475,000 1,416 sq. ft. 6,490 sq. ft. $335
2017-05-10 Single Family Traditional 15665 Plaza Serena Salinas, CA 93907 $809,900 2,726 sq. ft. 131 sq. ft. $297
2017-05-09 Single Family 9485 S Century Oak Rd Salinas, CA 93907 $649,000 1,966 sq. ft. 17,119 sq. ft. $330
2017-05-09 Single Family English 1789 Klamath Dr Salinas, CA 93906 $595,000 2,922 sq. ft. 5,837 sq. ft. $204
2017-05-08 Single Family 1891 Stratford Ct Salinas, CA 93906 $595,000 2,396 sq. ft. 6,186 sq. ft. $248
2017-05-06 Single Family 1054 Tyler St Salinas, CA 93906 $369,999 926 sq. ft. 6,621 sq. ft. $400
2017-05-06 Single Family 316 Noice Dr Salinas, CA 93906 $429,900 1,705 sq. ft. 7,187 sq. ft. $252
2017-05-05 Single Family 1669 Beacon Hill Dr Salinas, CA 93906 $439,000 1,231 sq. ft. 4,704 sq. ft. $357
2017-05-04 Single Family Farm House 25252 Limekiln Rd Salinas, CA 93908 $2,490,000 5,745 sq. ft. 696,960 sq. ft. $433
2017-05-04 Single Family 1035 Baywood Pl Salinas, CA 93901 $824,000 2,788 sq. ft. 7,405 sq. ft. $296
2017-05-04 Single Family 6980 Lakeview Dr Salinas, CA 93907 $549,000 1,584 sq. ft. 18,557 sq. ft. $347
2017-05-03 Single Family 560 Mcallister St Salinas, CA 93907 $467,900 1,522 sq. ft. 5,663 sq. ft. $307
2017-05-03 Single Family 338 Westminster Dr Salinas, CA 93906 $580,000 2,110 sq. ft. 6,578 sq. ft. $275
2017-05-02 Single Family 408 Elwood St Salinas, CA 93906 $375,000 1,215 sq. ft. 6,882 sq. ft. $309
2017-05-02 Single Family 16531 Meridian Rd Salinas, CA 93907 $529,900 1,583 sq. ft. 20,038 sq. ft. $335
2017-05-02 Single Family 17585 River Run Rd Salinas, CA 93908 $599,999 1,786 sq. ft. 5,140 sq. ft. $336
2017-05-02 Single Family 39 Alameda Pl Salinas, CA 93901 $549,000 2,048 sq. ft. 6,708 sq. ft. $268
2017-05-01 Single Family Mediterranean 21152 Old Ranch Ct Salinas, CA 93908 $618,950 1,666 sq. ft. 4,225 sq. ft. $372
2017-05-01 Single Family 27566 Prestancia Cir Salinas, CA 93908 $929,000 3,818 sq. ft. 13,634 sq. ft. $243
2017-05-01 Single Family Traditional 1603 Atherton Way Salinas, CA 93906 $499,000 2,182 sq. ft. 7,841 sq. ft. $229
2017-04-29 Single Family Ranch 18687 Eisenhower St Salinas, CA 93906 $415,000 1,111 sq. ft. 6,534 sq. ft. $374
2017-04-29 Single Family Contemporary; Ranch 9355 Holly Oak Way Salinas, CA 93907 $569,000 1,770 sq. ft. 13,155 sq. ft. $321
2017-04-28 Single Family Mediterranean 27335 Bavella Way Salinas, CA 93908 $643,900 1,570 sq. ft. 4,661 sq. ft. $410
2017-04-27 Single Family 10 Downing Cir Salinas, CA 93906 $529,000 2,394 sq. ft. 6,098 sq. ft. $221
2017-04-27 Single Family 18182 Vierra Canyon Rd Salinas, CA 93907 $695,000 2,443 sq. ft. 116,741 sq. ft. $284
2017-04-26 Single Family Mediterranean 1630 Bologna Ct Salinas, CA 93905 $475,000 2,035 sq. ft. 4,138 sq. ft. $233
2017-04-26 Single Family Ranch 36 Paseo Hermoso Salinas, CA 93908 $895,000 2,549 sq. ft. 57,935 sq. ft. $351
2017-04-25 Single Family Ranch 1231 Summit Dr Salinas, CA 93905 $375,000 1,030 sq. ft. 8,189 sq. ft. $364
2017-04-24 Single Family 235 San Juan Grade Rd Salinas, CA 93906 $345,000 764 sq. ft. 8,320 sq. ft. $452
2017-04-24 Single Family 30 Central Ave Salinas, CA 93901 $589,000 1,489 sq. ft. 8,407 sq. ft. $396
2017-04-22 Single Family 17235 Garlen Ln Salinas, CA 93907 $625,000 2,230 sq. ft. 21,780 sq. ft. $280
2017-04-22 Single Family 174 Riker Ter Salinas, CA 93901 $485,000 1,153 sq. ft. 6,011 sq. ft. $421
2017-04-21 Single Family Ranch; Traditional 759 Monterey Salinas Highway Salinas, CA 93908 $1,150,000 2,400 sq. ft. 304,920 sq. ft. $479
2017-04-21 Single Family Traditional 11 Elmsford Cir Salinas, CA 93906 $608,000 2,642 sq. ft. 5,968 sq. ft. $230
2017-04-20 Single Family Custom 22557 Black Mountain Rd Salinas, CA 93908 $675,000 2,096 sq. ft. 13,199 sq. ft. $322
2017-04-19 Single Family 19240 Eden Path Salinas, CA 93907 $875,000 3,072 sq. ft. 131,551 sq. ft. $285
2017-04-19 Single Family 942 Lupin Salinas, CA 93906 $439,900 2,690 sq. ft. 7,405 sq. ft. $164
2017-04-19 Single Family 458 Shelley Way Salinas, CA 93901 $450,000 1,376 sq. ft. 5,793 sq. ft. $327
2017-04-18 Single Family Traditional 242 Navajo Salinas, CA 93906 $399,900 1,208 sq. ft. 5,663 sq. ft. $331
2017-04-18 Single Family 1401 Alma Salinas, CA 93905 $179,000 664 sq. ft. 7,623 sq. ft. $270
2017-04-17 Single Family 1340 Rossano Salinas, CA 93905 $579,000 2,976 sq. ft. 6,534 sq. ft. $195
2017-04-17 Single Family Contemporary; Custom 7350 Arrowhead Dr Salinas, CA 93907 $849,000 3,224 sq. ft. 110,207 sq. ft. $263
2017-04-15 Single Family 42 Magnolia Dr Salinas, CA 93905 $340,000 923 sq. ft. 6,011 sq. ft. $368
2017-04-14 Single Family 14570 Mountain Quail Rd Salinas, CA 93908 $795,000 2,673 sq. ft. 6,098 sq. ft. $297
2017-04-13 Single Family 767 Central Ave Salinas, CA 93901 $409,000 1,123 sq. ft. 7,231 sq. ft. $364
2017-04-13 Single Family Victorian 399 Central Avenue Salinas, CA 93901 $452,500 2,153 sq. ft. 6,970 sq. ft. $210
2017-04-13 Single Family 105 Ragsdale Court Salinas, CA 93905 $339,000 725 sq. ft. 4,356 sq. ft. $468
2017-04-12 Single Family Contemporary 1780 Windsor St Salinas, CA 93906 $610,000 2,535 sq. ft. 6,447 sq. ft. $241
2017-04-12 Single Family 1238 Adams St Salinas, CA 93906 $385,000 1,396 sq. ft. 7,405 sq. ft. $276
2017-04-12 Single Family Country English 1608 Piazza Dr Salinas, CA 93905 $494,500 2,487 sq. ft. 4,922 sq. ft. $199
2017-04-11 Single Family Tract 1633 Chico Way Salinas, CA 93906 $395,000 1,260 sq. ft. 3,920 sq. ft. $313
2017-04-11 Single Family 215 Carriage Dr Salinas, CA 93905 $379,900 1,506 sq. ft. 3,311 sq. ft. $252
2017-04-10 Single Family 821 La Cuesta Ct Salinas, CA 93905 $430,000 1,279 sq. ft. 4,792 sq. ft. $336
2017-04-10 Single Family French 42 Grove St Salinas, CA 93901 $565,000 1,701 sq. ft. 6,490 sq. ft. $332
2017-04-07 Single Family 1048 Bison Way Salinas, CA 93905 $459,900 2,106 sq. ft. 5,271 sq. ft. $218
2017-04-07 Single Family Ranch 22942 Cordoba Pl Salinas, CA 93908 $759,000 1,910 sq. ft. 10,934 sq. ft. $397
2017-04-07 Single Family 1329 Rossano Ct Salinas, CA 93905 $695,000 3,564 sq. ft. 8,712 sq. ft. $195
2017-04-07 Single Family Spanish 297 San Benancio Rd Salinas, CA 93908 $895,000 2,583 sq. ft. 132,422 sq. ft. $346
2017-04-07 Single Family 17679 Riverbend Rd Salinas, CA 93908 $645,000 2,603 sq. ft. 5,053 sq. ft. $248
2017-04-06 Single Family Mediterranean 22522 Indian Springs Rd Salinas, CA 93908 $1,399,000 3,640 sq. ft. 17,860 sq. ft. $384
2017-04-06 Single Family Craftsman 431 West St Salinas, CA 93901 $599,000 2,764 sq. ft. 6,490 sq. ft. $217
2017-04-04 Single Family 251 Natividad Rd Salinas, CA 93906 $699,000 2,333 sq. ft. 62,291 sq. ft. $300
2017-03-31 Single Family 1712 Los Coches Cir Salinas, CA 93906 $395,000 1,260 sq. ft. 3,920 sq. ft. $313
2017-03-31 Single Family Contemporary 22635 Oak Canyon Rd Salinas, CA 93908 $699,900 2,259 sq. ft. 11,674 sq. ft. $310
2017-03-31 Single Family Traditional 215 Winham St Salinas, CA 93901 $560,000 1,563 sq. ft. 6,403 sq. ft. $358
2017-03-31 Single Family Contemporary 212a San Benancio Rd Salinas, CA 93908 $845,000 2,246 sq. ft. 108,900 sq. ft. $376
2017-03-31 Single Family Ranch 17064 Mcguffie Rd Salinas, CA 93907 $615,000 1,814 sq. ft. 43,560 sq. ft. $339
2017-03-31 Single Family Spanish 321 West St Salinas, CA 93901 $499,900 1,559 sq. ft. 5,881 sq. ft. $321
2017-03-30 Single Family Contemporary 1605 Marshfield Ct Salinas, CA 93906 $480,000 1,794 sq. ft. 6,882 sq. ft. $268
2017-03-30 Single Family 7 Randall Rd Salinas, CA 93907 $370,000 1,716 sq. ft. 10,193 sq. ft. $216
2017-03-30 Single Family 1225 Tahiti Pl Salinas, CA 93905 $312,200 1,481 sq. ft. 6,011 sq. ft. $211
2017-03-28 Single Family Ranch; Tract 1843 Redondo Way Salinas, CA 93906 $406,000 1,371 sq. ft. 6,970 sq. ft. $296
2017-03-24 Single Family 1497 Cherokee Dr Salinas, CA 93906 $387,700 1,441 sq. ft. 11,021 sq. ft. $269
2017-03-23 Single Family 1241 Bolero Ave Salinas, CA 93906 $385,000 1,215 sq. ft. 5,881 sq. ft. $317
2017-03-21 Single Family 18665 Moro Rd Salinas, CA 93907 $669,500 3,109 sq. ft. 62,291 sq. ft. $215
2017-03-20 Single Family 323 Tynan Way Salinas, CA 93906 $599,000 2,239 sq. ft. 7,187 sq. ft. $268
2017-03-17 Single Family 486 Paradise Rd Salinas, CA 93907 $515,000 1,924 sq. ft. 60,548 sq. ft. $268
2017-03-16 Single Family Ranch 25303 Camino De Chamisal Salinas, CA 93908 $1,269,500 2,880 sq. ft. 65,776 sq. ft. $441
2017-03-16 Single Family Contemporary; Ranch 14475 Mountain Quail Rd Salinas, CA 93908 $950,000 2,851 sq. ft. 7,405 sq. ft. $333
2017-03-13 Single Family Ranch 26455 Tierra Vista Ln Salinas, CA 93908 $1,245,000 3,525 sq. ft. 109,902 sq. ft. $353
2017-03-10 Single Family 1236 E Paseo Grande St Salinas, CA 93905 $429,000 1,364 sq. ft. 6,621 sq. ft. $315
2017-03-09 Single Family 1021 Acosta St Salinas, CA 93905 $339,900 1,385 sq. ft. 7,623 sq. ft. $245
2017-03-08 Single Family 721 Via Maria Salinas, CA 93901 $375,000 1,597 sq. ft. 6,186 sq. ft. $235
2017-03-06 Single Family Traditional 63 La Mirada Ct Salinas, CA 93901 $669,000 3,474 sq. ft. 7,492 sq. ft. $193
2017-03-03 Single Family Ranch 17918 Pesante Rd Salinas, CA 93907 $499,500 1,496 sq. ft. 24,699 sq. ft. $334
2017-03-03 Single Family Victorian 399 Central Ave Salinas, CA 93901 $452,500 2,153 sq. ft. 7,100 sq. ft. $210
2017-03-02 Single Family Victorian 102 Geil St Salinas, CA 93901 $395,000 1,080 sq. ft. 5,184 sq. ft. $366
2017-03-02 Single Family 222 Katherine Ave Salinas, CA 93901 $510,000 1,382 sq. ft. 6,011 sq. ft. $369
2017-03-02 Single Family Traditional 18727 Louise Ct Salinas, CA 93906 $359,000 1,045 sq. ft. 6,970 sq. ft. $344
2017-02-25 Single Family 22740 Torero Ct Salinas, CA 93908 $868,000 2,592 sq. ft. 11,326 sq. ft. $335
2017-02-24 Single Family Contemporary 720 La Mesa Dr Salinas, CA 93901 $468,000 1,601 sq. ft. 6,621 sq. ft. $292
2017-02-23 Single Family Contemporary; Spanish 780 El Camino Real N Salinas, CA 93907 $1,099,000 1,850 sq. ft. 847,242 sq. ft. $594
2017-02-22 Single Family 728 E Market St Salinas, CA 93905 $325,000 803 sq. ft. 6,882 sq. ft. $405
2017-02-16 Single Family Cape Cod 803 Elm Dr Salinas, CA 93905 $299,900 1,099 sq. ft. 5,009 sq. ft. $273
2017-02-16 Single Family Traditional 237 Sansome St Salinas, CA 93907 $436,900 1,533 sq. ft. 4,051 sq. ft. $285
2017-02-14 Single Family Ranch 817 Via Maria Salinas, CA 93901 $475,000 1,676 sq. ft. 6,098 sq. ft. $283
2017-02-10 Single Family 242 Towt St Salinas, CA 93905 $349,900 1,354 sq. ft. 7,187 sq. ft. $258
2017-02-10 Single Family 24485 Vereda Del Valle Salinas, CA 93908 $1,300,000 3,090 sq. ft. 58,501 sq. ft. $421
2017-02-10 Single Family Charter Oak Blvd Salinas, CA 93907 $610,000 2,332 sq. ft. 13,939 sq. ft. $262
2017-02-09 Single Family 14682 Charter Oak Blvd Salinas, CA 93907 $642,500 2,056 sq. ft. 14,854 sq. ft. $312
2017-02-08 Single Family 153 Orchard Ave Salinas, CA 93905 $330,000 960 sq. ft. 4,792 sq. ft. $344
2017-02-03 Single Family Traditional 24665 Vereda Corta Salinas, CA 93908 $1,398,000 3,088 sq. ft. 56,802 sq. ft. $453
2017-02-01 Single Family Cabin; Contemporary; Custom 28000 Underwood Rd Salinas, CA 93908 $2,295,000 2,850 sq. ft. 1,437,480 sq. ft. $805
2017-01-30 Single Family 777 Kilbreth Ave Salinas, CA 93905 $340,000 1,195 sq. ft. 8,189 sq. ft. $285
2017-01-17 Single Family 9135 Moonlight Ct Salinas, CA 93907 $899,950 2,750 sq. ft. 131,987 sq. ft. $327
2017-01-14 Single Family Ranch 201 W Acacia St Salinas, CA 93901 $549,000 2,073 sq. ft. 7,013 sq. ft. $265
2017-01-12 Single Family 8 Spoleto Cir Salinas, CA 93905 $435,000 2,131 sq. ft. 4,225 sq. ft. $204
2017-01-11 Single Family 12 Antigua Cir Salinas, CA 93905 $430,000 1,793 sq. ft. 6,229 sq. ft. $240
2017-01-10 Single Family 9847 Prunedale South Rd Salinas, CA 93907 $385,000 1,060 sq. ft. 14,810 sq. ft. $363
2016-12-23 Single Family 1645 Ukiah Way Salinas, CA 93906 $359,000 1,112 sq. ft. 6,098 sq. ft. $323
2016-12-21 Single Family 1864 Stratford Ct Salinas, CA 93906 $519,900 1,839 sq. ft. 5,314 sq. ft. $283
2016-12-08 Single Family Ranch 9255 Canyon Oak Rd Salinas, CA 93907 $650,000 2,348 sq. ft. 12,415 sq. ft. $277
2016-11-17 Single Family 1737 Siskiyou Dr Salinas, CA 93906 $420,000 1,661 sq. ft. 5,793 sq. ft. $253
2016-11-17 Single Family 213 Maryal Dr Salinas, CA 93906 $418,000 1,525 sq. ft. 6,316 sq. ft. $274
2016-11-16 Single Family Traditional 22760 Bravo Ct Salinas, CA 93908 $959,000 2,360 sq. ft. 13,721 sq. ft. $406
2016-11-02 Single Family 1645 Ukiah Way Salinas, CA 93906 $359,000 1,112 sq. ft. 6,098 sq. ft. $323
2016-10-29 Single Family 1318 Cherokee Dr Salinas, CA 93906 $374,900 1,082 sq. ft. 7,492 sq. ft. $346
2016-10-29 Single Family 558 Victor St Salinas, CA 93907 $305,000 985 sq. ft. 4,966 sq. ft. $310
2016-10-20 Single Family 332 Archer St Salinas, CA 93901 $444,000 1,553 sq. ft. 7,797 sq. ft. $286
2016-10-09 Single Family 137 Grove St Salinas, CA 93901 $520,000 1,754 sq. ft. 7,754 sq. ft. $296
2016-09-28 Single Family 251 San Juan Grade Rd Salinas, CA 93906 $349,000 1,034 sq. ft. 8,712 sq. ft. $338
2016-08-01 Single Family 24 Winham St Salinas, CA 93901 $450,000 1,474 sq. ft. 6,142 sq. ft. $305
2016-06-14 Single Family 15 Homestead Ave Salinas, CA 93901 $430,000 1,800 sq. ft. 8,015 sq. ft. $239
2016-06-07 Single Family 21152 Valle San Juan Dr Salinas, CA 93907 $1,170,000 4,235 sq. ft. 43,560 sq. ft. $276
2016-06-01 Single Family 46 Paloma Ave Salinas, CA 93905 $375,000 1,156 sq. ft. 6,011 sq. ft. $324
2016-04-27 Single Family Spanish 13506 Paseo Terrano Salinas, CA 93908 $950,000 5,020 sq. ft. 39,857 sq. ft. $189
2016-04-27 Single Family Traditional 27573 Prestancia Cir Salinas, CA 93908 $755,000 3,818 sq. ft. 14,767 sq. ft. $198
2016-04-11 Single Family Custom 25362 Markham Ln Salinas, CA 93908 $1,998,000 5,247 sq. ft. 87,120 sq. ft. $381
2016-04-07 Single Family Mediterranean 384 Corral De Tierra Rd Salinas, CA 93908 $3,888,000 3,547 sq. ft. 435,600 sq. ft. $1,096
2016-03-25 Single Family 17970 Vierra Canyon Rd Salinas, CA 93907 $550,000 1,808 sq. ft. 285,318 sq. ft. $304
2016-03-08 Single Family Mediterranean 8681 Woodland Heights Ct Salinas, CA 93907 $785,000 3,195 sq. ft. 119,354 sq. ft. $246
2015-11-05 Single Family Country English 23540 Belmont Cir Salinas, CA 93908 $1,949,000 5,001 sq. ft. 136,778 sq. ft. $390